Time;durP1;ratioP1;P1;durP2;ratioP2;P2;SDS_P1;SDS_P2;PMS_P1;PMS_P2;Temp;Humidity;BMP_temperature;BMP_pressure;BME280_temperature;BME280_humidity;BME280_pressure;Samples;Min_cycle;Max_cycle;Signal;HPM_P1;HPM_P2
2021/09/15 00:00:28;;;;;;;8.88;6.55;;;;;;;18.02;47.45;95318.69;4974489;28;20038;-69
2021/09/15 00:02:53;;;;;;;9.60;6.63;;;;;;;17.97;46.67;95323.97;4974444;28;20026;-69
2021/09/15 00:05:18;;;;;;;11.23;6.95;;;;;;;17.94;46.20;95315.53;4972937;28;20027;-69
2021/09/15 00:07:44;;;;;;;10.93;7.07;;;;;;;17.99;48.40;95313.78;4973900;28;20071;-69
2021/09/15 00:10:10;;;;;;;10.07;6.75;;;;;;;18.01;47.81;95311.66;4974909;28;20023;-69
2021/09/15 00:12:35;;;;;;;9.38;6.22;;;;;;;18.02;47.21;95307.91;4972213;28;20049;-69
2021/09/15 00:15:00;;;;;;;11.05;6.47;;;;;;;17.99;48.27;95313.78;4971066;28;20058;-68
2021/09/15 00:17:26;;;;;;;9.75;6.88;;;;;;;18.00;48.41;95318.09;4974125;28;20047;-69
2021/09/15 00:19:51;;;;;;;8.45;6.57;;;;;;;18.05;47.56;95312.84;4972688;28;20035;-69
2021/09/15 00:22:17;;;;;;;8.38;6.55;;;;;;;18.04;47.39;95303.13;4974817;28;20050;-68
2021/09/15 00:24:42;;;;;;;8.98;6.85;;;;;;;17.99;47.21;95297.63;4975065;28;20027;-68
2021/09/15 00:27:08;;;;;;;11.93;7.13;;;;;;;18.02;46.93;95297.13;4973043;28;20039;-68
2021/09/15 00:29:33;;;;;;;14.23;7.43;;;;;;;18.03;47.53;95290.72;4974478;28;20026;-69
2021/09/15 00:31:59;;;;;;;9.60;6.88;;;;;;;18.03;46.94;95289.88;4973856;28;20038;-69
2021/09/15 00:34:29;;;;;;;11.57;7.07;;;;;;;18.07;46.86;95295.63;4973623;28;20030;-69
2021/09/15 00:36:55;;;;;;;9.35;6.30;;;;;;;18.09;46.90;95290.81;4974298;28;20723;-69
2021/09/15 00:39:20;;;;;;;8.63;6.57;;;;;;;17.92;46.71;95288.84;4954060;28;20039;-68
2021/09/15 00:41:46;;;;;;;9.40;6.38;;;;;;;18.03;47.86;95285.34;4969733;28;20031;-68
2021/09/15 00:44:11;;;;;;;7.10;5.93;;;;;;;18.08;47.53;95279.22;4972815;28;20451;-68
2021/09/15 00:46:37;;;;;;;12.18;6.40;;;;;;;18.09;47.15;95285.44;4969320;28;20509;-68
2021/09/15 00:49:03;;;;;;;9.25;6.40;;;;;;;18.16;47.67;95275.38;4973573;28;20022;-68
2021/09/15 00:51:30;;;;;;;8.23;6.63;;;;;;;18.09;46.12;95267.41;4973911;28;20746;-68
2021/09/15 00:53:56;;;;;;;10.02;6.50;;;;;;;18.04;46.47;95273.50;4953903;29;20521;-68
2021/09/15 00:56:21;;;;;;;8.57;7.07;;;;;;;18.10;47.71;95262.81;4968569;28;20034;-68
2021/09/15 00:58:47;;;;;;;8.35;6.57;;;;;;;18.03;46.81;95260.25;4962827;28;20031;-68
2021/09/15 01:01:12;;;;;;;9.82;6.68;;;;;;;18.13;46.99;95259.66;4975428;28;20023;-68
2021/09/15 01:03:38;;;;;;;8.57;6.55;;;;;;;18.30;47.58;95260.59;4974676;28;20476;-68
2021/09/15 01:06:03;;;;;;;8.70;6.88;;;;;;;18.27;47.18;95255.69;4974021;28;20069;-68
2021/09/15 01:08:29;;;;;;;8.85;6.28;;;;;;;18.27;46.90;95250.28;4953582;28;20058;-68
2021/09/15 01:10:54;;;;;;;9.30;6.05;;;;;;;18.25;46.55;95251.59;4956399;28;20034;-68
2021/09/15 01:13:20;;;;;;;9.15;6.30;;;;;;;18.28;47.03;95261.88;4974324;28;20070;-68
2021/09/15 01:15:45;;;;;;;10.25;6.75;;;;;;;18.22;46.40;95252.84;4972672;28;20043;-68
2021/09/15 01:18:14;;;;;;;9.38;6.68;;;;;;;18.21;46.12;95250.41;4973548;28;20093;-68
2021/09/15 01:20:39;;;;;;;8.27;6.45;;;;;;;18.26;46.99;95250.53;4974310;28;20050;-68
2021/09/15 01:23:05;;;;;;;8.25;6.38;;;;;;;18.31;47.11;95246.06;4974184;28;20723;-68
2021/09/15 01:25:30;;;;;;;9.05;6.70;;;;;;;18.27;46.90;95247.59;4974364;28;20027;-68
2021/09/15 01:27:56;;;;;;;7.53;5.82;;;;;;;18.29;47.61;95245.47;4973888;28;20038;-68
2021/09/15 01:30:21;;;;;;;8.05;6.35;;;;;;;18.28;46.54;95253.78;4974365;28;20026;-68
2021/09/15 01:32:46;;;;;;;8.48;6.55;;;;;;;18.26;46.41;95254.03;4974494;28;20026;-68
2021/09/15 01:35:12;;;;;;;9.52;6.72;;;;;;;18.28;47.10;95251.09;4974127;28;20118;-68
2021/09/15 01:37:37;;;;;;;9.15;6.70;;;;;;;18.28;47.13;95256.47;4971430;28;20437;-69
2021/09/15 01:40:03;;;;;;;9.13;6.70;;;;;;;18.26;46.58;95256.72;4965288;28;20053;-68
2021/09/15 01:42:29;;;;;;;10.50;6.25;;;;;;;18.29;47.04;95252.75;4973243;28;20034;-68
2021/09/15 01:44:54;;;;;;;10.13;6.28;;;;;;;18.33;47.09;95251.22;4972002;28;20085;-68
2021/09/15 01:47:19;;;;;;;9.20;6.43;;;;;;;18.37;47.59;95249.69;4973001;28;20130;-68
2021/09/15 01:49:45;;;;;;;9.15;6.75;;;;;;;18.38;46.78;95250.50;4975057;28;20050;-68
2021/09/15 01:52:11;;;;;;;7.38;5.80;;;;;;;18.40;47.26;95245.69;4972372;28;20042;-68
2021/09/15 01:54:37;;;;;;;12.25;6.85;;;;;;;18.40;46.99;95240.31;4973555;28;20440;-68
2021/09/15 01:57:03;;;;;;;10.07;6.30;;;;;;;18.40;46.69;95229.53;4968237;28;20039;-68
2021/09/15 01:59:28;;;;;;;11.48;6.10;;;;;;;18.42;47.62;95236.31;4967660;28;20034;-68
2021/09/15 02:01:54;;;;;;;7.32;6.10;;;;;;;18.39;46.71;95234.09;4974676;28;20054;-68
2021/09/15 02:04:19;;;;;;;8.18;6.45;;;;;;;18.41;47.69;95234.69;4974056;28;20579;-68
2021/09/15 02:06:45;;;;;;;8.10;5.88;;;;;;;18.40;46.99;95224.97;4974909;28;20035;-68
2021/09/15 02:09:10;;;;;;;8.77;6.32;;;;;;;18.40;47.27;95222.28;4975043;28;20031;-68
2021/09/15 02:11:37;;;;;;;7.95;6.40;;;;;;;18.49;47.34;95221.91;4973751;28;20043;-68
2021/09/15 02:14:03;;;;;;;10.00;6.80;;;;;;;18.46;47.44;95228.56;4974556;28;20071;-68
2021/09/15 02:16:29;;;;;;;8.65;6.30;;;;;;;18.39;47.44;95219.81;4972716;28;20512;-68
2021/09/15 02:18:54;;;;;;;7.10;5.97;;;;;;;18.36;47.99;95222.97;4972923;28;20039;-68
2021/09/15 02:21:20;;;;;;;13.93;6.40;;;;;;;18.33;46.85;95221.59;4975825;28;20042;-68
2021/09/15 02:23:45;;;;;;;10.43;6.63;;;;;;;18.35;47.78;95224.84;4974477;28;20045;-68
2021/09/15 02:26:11;;;;;;;9.88;6.35;;;;;;;18.34;47.12;95219.69;4973795;28;20525;-69
2021/09/15 02:28:37;;;;;;;8.10;6.13;;;;;;;18.38;47.57;95224.38;4976142;28;20051;-68
2021/09/15 02:31:03;;;;;;;11.43;6.53;;;;;;;18.40;48.04;95224.16;4960785;28;20063;-68
2021/09/15 02:33:28;;;;;;;9.10;6.97;;;;;;;18.51;47.74;95225.16;4977007;28;20039;-68
2021/09/15 02:35:54;;;;;;;10.07;6.53;;;;;;;18.52;48.03;95219.53;4978021;28;20046;-68
2021/09/15 02:38:19;;;;;;;10.32;6.85;;;;;;;18.54;47.95;95219.31;4974005;28;20035;-68
2021/09/15 02:40:44;;;;;;;11.57;7.05;;;;;;;18.62;48.16;95212.72;4976874;28;20031;-70
2021/09/15 02:43:10;;;;;;;9.77;6.78;;;;;;;18.63;47.78;95215.19;4979559;28;20038;-69
2021/09/15 02:45:35;;;;;;;11.25;7.05;;;;;;;18.65;48.25;95210.38;4978928;28;20046;-68
2021/09/15 02:48:01;;;;;;;10.63;7.07;;;;;;;18.60;48.31;95206.78;4977844;28;20412;-69
2021/09/15 02:50:26;;;;;;;9.65;7.07;;;;;;;18.58;48.06;95198.09;4978161;28;20030;-69
2021/09/15 02:52:51;;;;;;;10.45;7.00;;;;;;;18.54;48.06;95205.81;4971130;28;20039;-68
2021/09/15 02:55:17;;;;;;;9.73;6.85;;;;;;;18.53;48.41;95202.31;4976360;28;20039;-68
2021/09/15 02:57:42;;;;;;;8.50;6.63;;;;;;;18.42;48.06;95195.06;4960005;28;20033;-68
2021/09/15 03:00:08;;;;;;;9.95;7.40;;;;;;;18.41;48.31;95198.81;4977528;28;20030;-69
2021/09/15 03:02:34;;;;;;;10.10;7.55;;;;;;;18.39;48.15;95198.25;4977149;28;20035;-68
2021/09/15 03:04:59;;;;;;;11.18;7.35;;;;;;;18.38;48.44;95204.69;4974849;28;20046;-68
2021/09/15 03:07:25;;;;;;;10.52;8.15;;;;;;;18.29;49.08;95202.38;4974831;28;20114;-68
2021/09/15 03:09:50;;;;;;;10.07;7.60;;;;;;;18.34;48.64;95200.84;4976977;28;20027;-68
2021/09/15 03:12:16;;;;;;;10.13;6.72;;;;;;;18.26;48.32;95205.53;4971468;28;20042;-68
2021/09/15 03:14:41;;;;;;;9.77;7.45;;;;;;;18.16;48.08;95200.75;4972171;28;20039;-68
2021/09/15 03:17:06;;;;;;;14.05;8.45;;;;;;;18.16;48.26;95200.75;4976293;28;20074;-68
2021/09/15 03:19:32;;;;;;;11.55;7.90;;;;;;;18.20;48.65;95195.72;4972174;28;20089;-68
2021/09/15 03:21:57;;;;;;;10.90;7.30;;;;;;;18.19;48.65;95194.09;4972379;28;20026;-68
2021/09/15 03:24:23;;;;;;;8.48;7.38;;;;;;;18.11;48.56;95191.75;4971553;28;20073;-68
2021/09/15 03:26:48;;;;;;;8.98;7.00;;;;;;;18.05;48.31;95188.94;4969019;28;20030;-68
2021/09/15 03:29:14;;;;;;;11.77;7.53;;;;;;;18.04;48.26;95197.25;4960158;28;20023;-68
2021/09/15 03:31:39;;;;;;;10.65;7.80;;;;;;;18.02;48.30;95191.31;4975517;28;20050;-71
2021/09/15 03:34:05;;;;;;;9.60;6.95;;;;;;;17.85;47.85;95183.09;4976484;28;20511;-68
2021/09/15 03:36:30;;;;;;;8.23;7.00;;;;;;;17.95;48.95;95182.53;4963331;28;20035;-68
2021/09/15 03:38:55;;;;;;;8.25;6.55;;;;;;;17.98;48.89;95188.25;4968276;28;20051;-68
2021/09/15 03:41:21;;;;;;;11.63;6.75;;;;;;;17.96;48.95;95184.16;4975118;28;20388;-68
2021/09/15 03:43:46;;;;;;;8.60;6.72;;;;;;;17.98;48.35;95180.16;4966849;28;20415;-68
2021/09/15 03:46:12;;;;;;;7.97;6.65;;;;;;;17.95;48.67;95175.25;4969651;28;20038;-68
2021/09/15 03:48:37;;;;;;;9.10;6.80;;;;;;;17.97;48.74;95181.22;4975150;28;20095;-68
2021/09/15 03:51:03;;;;;;;8.80;6.90;;;;;;;17.99;48.73;95179.13;4976544;28;20130;-69
2021/09/15 03:53:28;;;;;;;9.40;7.00;;;;;;;18.00;49.42;95183.47;4967853;28;20108;-68
2021/09/15 03:55:54;;;;;;;11.55;8.25;;;;;;;18.02;49.88;95184.03;4975841;28;20034;-68
2021/09/15 03:58:19;;;;;;;9.02;6.72;;;;;;;18.00;49.73;95185.31;4976144;28;20035;-68
2021/09/15 04:00:44;;;;;;;8.27;6.18;;;;;;;18.10;49.49;95182.84;4976356;28;20027;-68
2021/09/15 04:03:10;;;;;;;13.30;6.50;;;;;;;18.03;47.88;95180.28;4974505;28;20042;-68
2021/09/15 04:05:36;;;;;;;8.85;6.60;;;;;;;18.09;49.16;95178.53;4975789;28;20113;-68
2021/09/15 04:08:01;;;;;;;10.65;7.70;;;;;;;18.19;49.86;95172.53;4975707;28;20476;-68
2021/09/15 04:10:27;;;;;;;9.35;6.82;;;;;;;18.17;48.94;95177.34;4968565;28;20473;-68
2021/09/15 04:12:52;;;;;;;9.25;6.65;;;;;;;18.16;48.94;95176.50;4970605;28;20051;-69
2021/09/15 04:15:18;;;;;;;9.02;6.45;;;;;;;18.10;48.80;95172.09;4974113;28;20039;-68
2021/09/15 04:17:43;;;;;;;8.32;6.60;;;;;;;18.04;47.58;95164.94;4974066;28;20030;-68
2021/09/15 04:20:09;;;;;;;9.70;6.97;;;;;;;17.95;48.74;95171.75;4972980;28;20428;-68
2021/09/15 04:22:37;;;;;;;7.97;6.57;;;;;;;18.10;49.27;95165.88;4973301;28;20754;-68
2021/09/15 04:33:16;;;;;;;9.70;7.32;;;;;;;18.02;49.62;95170.56;4974769;28;20498;-69
2021/09/15 04:35:41;;;;;;;9.38;7.25;;;;;;;18.00;49.71;95170.00;4973221;28;20043;-68
2021/09/15 04:38:07;;;;;;;8.95;7.20;;;;;;;17.98;50.07;95171.28;4968290;28;20039;-69
2021/09/15 04:40:32;;;;;;;9.90;7.47;;;;;;;18.05;49.48;95172.78;4969558;28;20034;-68
2021/09/15 04:42:58;;;;;;;12.32;7.55;;;;;;;18.10;49.78;95173.94;4972319;28;20027;-69
2021/09/15 04:45:23;;;;;;;8.98;6.82;;;;;;;18.05;49.01;95171.97;4966160;28;20138;-69
2021/09/15 04:47:49;;;;;;;8.70;7.03;;;;;;;18.08;49.44;95173.38;4972715;28;20450;-68
2021/09/15 04:50:14;;;;;;;11.13;6.70;;;;;;;17.97;49.68;95167.78;4973134;28;20038;-68
2021/09/15 04:52:39;;;;;;;9.43;6.40;;;;;;;18.04;49.18;95167.63;4971818;28;20106;-68
2021/09/15 04:55:06;;;;;;;9.93;6.72;;;;;;;18.03;49.44;95163.31;4971019;28;20043;-68
2021/09/15 04:57:31;;;;;;;10.35;7.03;;;;;;;18.05;50.23;95170.09;4972723;28;20555;-69
2021/09/15 04:59:56;;;;;;;8.40;6.35;;;;;;;18.01;49.97;95160.84;4972097;28;20094;-69
2021/09/15 05:02:22;;;;;;;11.32;6.85;;;;;;;18.03;48.98;95161.44;4973608;28;20034;-68
2021/09/15 05:04:47;;;;;;;10.07;6.82;;;;;;;18.10;50.07;95168.56;4970089;28;20034;-69
2021/09/15 05:07:13;;;;;;;12.18;8.13;;;;;;;17.59;51.65;95163.66;4971664;28;20081;-68
2021/09/15 05:09:39;;;;;;;10.38;7.50;;;;;;;17.88;50.60;95163.81;4970275;28;20097;-68
2021/09/15 05:12:04;;;;;;;10.88;7.30;;;;;;;17.87;49.85;95162.16;4961672;28;20043;-69
2021/09/15 05:14:30;;;;;;;13.05;7.10;;;;;;;17.97;50.33;95162.38;4960673;28;20054;-68
2021/09/15 05:16:55;;;;;;;12.05;8.10;;;;;;;18.04;49.71;95165.78;4963142;28;20043;-69
2021/09/15 05:19:21;;;;;;;11.85;7.68;;;;;;;18.01;50.05;95160.84;4970145;28;20055;-69
2021/09/15 05:21:46;;;;;;;7.47;6.25;;;;;;;17.99;49.66;95162.16;4970071;28;20872;-68
2021/09/15 05:24:12;;;;;;;11.18;7.72;;;;;;;17.97;50.04;95162.38;4970182;28;20030;-68
2021/09/15 05:26:37;;;;;;;10.18;7.30;;;;;;;17.99;50.00;95168.38;4967690;28;20031;-68
2021/09/15 05:29:02;;;;;;;11.95;7.53;;;;;;;18.08;49.79;95154.53;4984289;28;20140;-68
2021/09/15 05:31:28;;;;;;;9.80;7.55;;;;;;;18.04;50.04;95159.56;4970903;28;20078;-68
2021/09/15 05:33:53;;;;;;;9.38;7.20;;;;;;;18.07;49.21;95152.88;4970927;28;20046;-68
2021/09/15 05:36:19;;;;;;;9.23;7.45;;;;;;;18.07;50.05;95155.56;4970068;28;20382;-68
2021/09/15 05:38:44;;;;;;;10.05;7.03;;;;;;;18.11;49.82;95146.78;4963492;28;20039;-68
2021/09/15 05:41:10;;;;;;;10.73;7.03;;;;;;;18.15;49.40;95139.06;4955303;28;20050;-72
2021/09/15 05:43:35;;;;;;;9.73;7.30;;;;;;;18.18;49.53;95139.38;4971610;28;20038;-68
2021/09/15 05:46:01;;;;;;;9.95;7.50;;;;;;;18.21;49.80;95135.41;4969731;28;20038;-68
2021/09/15 05:48:26;;;;;;;7.60;6.38;;;;;;;18.20;48.77;95133.75;4968938;28;20062;-68
2021/09/15 05:50:51;;;;;;;9.93;6.88;;;;;;;18.27;49.74;95131.75;4968540;28;20099;-68
2021/09/15 05:53:17;;;;;;;10.38;6.93;;;;;;;18.25;49.75;95133.06;4971620;28;20439;-68
2021/09/15 05:55:42;;;;;;;8.48;6.50;;;;;;;18.42;49.20;95130.41;4968743;28;20054;-68
2021/09/15 05:58:08;;;;;;;11.13;7.53;;;;;;;18.56;49.36;95139.84;4961868;28;20050;-68
2021/09/15 06:00:33;;;;;;;9.90;7.90;;;;;;;18.65;49.17;95140.31;4970532;28;20042;-68
2021/09/15 06:02:58;;;;;;;13.75;8.32;;;;;;;18.66;49.20;95152.72;4968972;28;20038;-68
2021/09/15 06:05:24;;;;;;;13.63;7.88;;;;;;;18.61;48.91;95155.31;4973535;28;20030;-68
2021/09/15 06:07:50;;;;;;;12.50;9.05;;;;;;;18.33;49.60;95156.91;4974648;28;20050;-68
2021/09/15 06:10:16;;;;;;;12.30;9.05;;;;;;;17.31;52.59;95163.31;4969844;28;20038;-68
2021/09/15 06:12:41;;;;;;;11.50;8.25;;;;;;;17.59;50.81;95158.28;4967669;28;20137;-68
2021/09/15 06:15:07;;;;;;;9.57;6.88;;;;;;;17.98;50.94;95176.69;4971161;28;20043;-68
2021/09/15 06:17:32;;;;;;;11.00;7.63;;;;;;;18.11;51.07;95189.03;4975040;28;20044;-68
2021/09/15 06:19:58;;;;;;;14.10;8.63;;;;;;;18.15;50.98;95203.72;4972334;28;20050;-68
2021/09/15 06:22:23;;;;;;;24.77;9.48;;;;;;;18.02;51.09;95212.84;4976274;28;20035;-67
2021/09/15 06:24:53;;;;;;;17.17;8.65;;;;;;;16.92;54.19;95211.25;4975964;28;20118;-67
2021/09/15 06:27:19;;;;;;;12.93;8.38;;;;;;;17.18;53.90;95185.03;4975055;28;20037;-68
2021/09/15 06:29:44;;;;;;;11.43;9.18;;;;;;;17.10;52.95;95186.16;4977003;28;20027;-68
2021/09/15 06:32:09;;;;;;;8.90;6.00;;;;;;;17.33;52.70;95182.72;4975698;28;20034;-68
2021/09/15 06:34:35;;;;;;;8.93;5.13;;;;;;;17.66;51.61;95186.72;4975557;28;20456;-68
2021/09/15 06:37:00;;;;;;;8.45;5.60;;;;;;;17.41;52.37;95185.06;4971792;28;20035;-68
2021/09/15 06:39:26;;;;;;;7.90;5.10;;;;;;;17.60;51.81;95181.44;4973599;28;20039;-68
2021/09/15 06:41:51;;;;;;;11.30;7.82;;;;;;;17.59;50.70;95190.56;4977978;28;20035;-68
2021/09/15 06:44:17;;;;;;;8.13;5.20;;;;;;;17.74;51.33;95187.44;4979506;28;20074;-76
2021/09/15 06:46:42;;;;;;;6.75;4.53;;;;;;;17.84;51.10;95184.16;4968778;28;20089;-76
2021/09/15 06:49:08;;;;;;;7.03;4.63;;;;;;;17.73;51.73;95178.53;4972528;28;20507;-76
2021/09/15 06:51:33;;;;;;;5.82;4.47;;;;;;;17.91;51.63;95180.31;4952089;28;20144;-77
2021/09/15 06:53:59;;;;;;;7.60;4.45;;;;;;;18.04;51.28;95181.94;4973289;28;20093;-77
2021/09/15 06:56:24;;;;;;;9.30;7.18;;;;;;;18.04;48.78;95170.31;4954849;28;20046;-76
2021/09/15 06:58:49;;;;;;;8.07;5.93;;;;;;;18.00;50.40;95169.16;4961432;28;20496;-76
2021/09/15 07:01:15;;;;;;;8.52;6.97;;;;;;;18.22;50.21;95168.56;4973078;28;20022;-76
2021/09/15 07:03:41;;;;;;;5.65;4.60;;;;;;;18.38;50.69;95172.34;4971485;28;20046;-78
2021/09/15 07:06:06;;;;;;;8.80;5.10;;;;;;;18.58;50.07;95168.44;4972004;28;20043;-76
2021/09/15 07:08:32;;;;;;;10.15;6.97;;;;;;;18.54;49.16;95173.47;4952614;28;20654;-77
2021/09/15 07:10:57;;;;;;;5.50;4.30;;;;;;;18.69;49.90;95183.75;4960974;28;20047;-77
2021/09/15 07:13:23;;;;;;;13.75;9.10;;;;;;;18.72;49.54;95180.59;4972000;28;20063;-76
2021/09/15 07:15:49;;;;;;;5.97;4.00;;;;;;;18.87;48.96;95181.94;4960975;28;20040;-77
2021/09/15 07:18:14;;;;;;;5.75;4.45;;;;;;;18.86;49.16;95178.41;4972075;28;20054;-77
2021/09/15 07:20:41;;;;;;;4.90;3.55;;;;;;;18.38;50.03;95181.25;4972892;28;20039;-77
2021/09/15 07:23:06;;;;;;;5.80;3.40;;;;;;;17.43;52.62;95184.03;4971564;28;20105;-76
2021/09/15 07:25:31;;;;;;;7.15;4.70;;;;;;;17.89;51.31;95182.44;4955538;28;20023;-77
2021/09/15 07:27:57;;;;;;;8.35;4.60;;;;;;;18.19;50.73;95183.31;4971329;28;20043;-77
2021/09/15 07:30:22;;;;;;;6.93;3.60;;;;;;;18.41;49.64;95175.41;4955415;28;20443;-76
2021/09/15 07:32:48;;;;;;;11.50;7.00;;;;;;;18.05;48.90;95183.56;4971265;28;20033;-77
2021/09/15 07:35:14;;;;;;;5.55;3.60;;;;;;;18.17;50.69;95182.72;4972677;28;20043;-77
2021/09/15 07:37:39;;;;;;;6.07;3.65;;;;;;;17.75;52.20;95186.38;4955638;28;20389;-77
2021/09/15 07:40:06;;;;;;;7.63;4.72;;;;;;;18.12;50.29;95188.81;4940729;28;20047;-77
2021/09/15 07:42:31;;;;;;;9.90;8.33;;;;;;;17.96;51.13;95186.84;4971523;28;20068;-76
2021/09/15 07:44:57;;;;;;;6.93;4.40;;;;;;;17.33;53.38;95190.00;4972450;28;20031;-75
2021/09/15 07:47:22;;;;;;;11.32;7.93;;;;;;;18.11;50.67;95191.75;4945836;28;20030;-75
2021/09/15 07:49:49;;;;;;;10.32;8.52;;;;;;;18.39;48.18;95188.28;4950298;28;20066;-75
2021/09/15 07:52:15;;;;;;;9.13;6.53;;;;;;;18.79;49.61;95192.03;4950542;28;20473;-75
2021/09/15 07:54:40;;;;;;;4.93;3.75;;;;;;;19.14;48.78;95192.13;4953368;28;20042;-75
2021/09/15 07:57:06;;;;;;;5.40;4.15;;;;;;;19.08;49.03;95200.09;4968278;28;20058;-75
2021/09/15 07:59:31;;;;;;;9.73;7.10;;;;;;;18.46;50.40;95198.13;4938977;28;20485;-75
2021/09/15 08:01:58;;;;;;;10.40;6.93;;;;;;;18.84;49.62;95199.44;4968446;28;20038;-76
2021/09/15 08:04:23;;;;;;;7.87;4.63;;;;;;;18.74;50.56;95197.34;4970215;28;20038;-75
2021/09/15 08:06:49;;;;;;;8.05;5.95;;;;;;;17.17;55.03;95205.75;4971309;28;20369;-75
2021/09/15 08:09:14;;;;;;;7.97;5.40;;;;;;;18.27;51.33;95201.81;4971680;28;20483;-75
2021/09/15 08:11:39;;;;;;;7.13;4.50;;;;;;;18.99;49.98;95200.75;4971153;28;20042;-76
2021/09/15 08:14:05;;;;;;;5.10;3.92;;;;;;;19.08;49.78;95200.09;4969424;28;20130;-75
2021/09/15 08:16:30;;;;;;;7.28;4.20;;;;;;;19.08;49.52;95194.72;4970823;28;20043;-75
2021/09/15 08:18:58;;;;;;;7.45;3.80;;;;;;;19.24;48.99;95200.38;4953434;28;20412;-75
2021/09/15 08:21:24;;;;;;;8.35;4.35;;;;;;;19.37;48.68;95201.16;4953818;28;20069;-75
2021/09/15 08:23:50;;;;;;;5.60;3.70;;;;;;;18.89;50.00;95207.59;4969635;28;20047;-75
2021/09/15 08:26:17;;;;;;;6.97;3.67;;;;;;;18.99;48.77;95204.25;4958709;28;20031;-75
2021/09/15 08:28:44;;;;;;;10.98;4.72;;;;;;;18.28;50.87;95205.28;4970869;28;20047;-75
2021/09/15 08:31:10;;;;;;;15.23;9.83;;;;;;;18.78;49.14;95205.75;4952575;28;20557;-75
2021/09/15 08:33:36;;;;;;;13.63;10.07;;;;;;;18.38;47.16;95199.28;4970206;28;20093;-75
2021/09/15 08:36:01;;;;;;;10.30;6.75;;;;;;;18.56;48.46;95203.72;4933209;28;20051;-75
2021/09/15 08:38:27;;;;;;;8.38;6.10;;;;;;;18.65;50.43;95204.16;4969753;28;20034;-76
2021/09/15 08:40:53;;;;;;;5.82;4.30;;;;;;;17.60;52.13;95208.34;4956704;28;20045;-75
2021/09/15 08:43:19;;;;;;;7.80;4.35;;;;;;;18.18;52.40;95214.81;4953273;28;20039;-75
2021/09/15 08:45:44;;;;;;;10.80;6.95;;;;;;;18.99;49.92;95208.84;4963092;28;20500;-75
2021/09/15 08:48:10;;;;;;;7.38;4.55;;;;;;;19.42;48.75;95214.75;4968999;28;20046;-75
2021/09/15 08:50:35;;;;;;;11.40;7.25;;;;;;;19.06;49.34;95212.19;4969250;28;20042;-75
2021/09/15 08:53:00;;;;;;;6.90;4.10;;;;;;;18.88;49.84;95210.53;4968496;28;20053;-75
2021/09/15 08:55:26;;;;;;;10.32;7.10;;;;;;;19.15;48.88;95210.75;4968625;28;20054;-75
2021/09/15 08:57:51;;;;;;;6.07;4.40;;;;;;;18.42;50.70;95211.22;4953266;28;20033;-75
2021/09/15 09:00:17;;;;;;;8.82;4.50;;;;;;;19.00;49.37;95207.78;4970075;28;20043;-75
2021/09/15 09:02:46;;;;;;;6.53;4.00;;;;;;;19.08;49.07;95210.09;4969040;28;20476;-75
2021/09/15 09:05:11;;;;;;;5.90;4.10;;;;;;;19.38;48.74;95211.69;4969052;28;20038;-75
2021/09/15 09:07:37;;;;;;;5.93;4.00;;;;;;;19.40;48.55;95208.75;4939863;28;20043;-75
2021/09/15 09:10:11;;;;;;;6.03;3.92;;;;;;;19.11;49.22;95209.63;4965853;28;20051;-75
2021/09/15 09:12:38;;;;;;;6.88;4.28;;;;;;;19.33;49.22;95215.16;4946920;28;20051;-75
2021/09/15 09:15:11;;;;;;;5.53;4.00;;;;;;;18.73;49.60;95219.16;4967704;28;20416;-75
2021/09/15 09:17:37;;;;;;;6.72;4.70;;;;;;;18.69;50.52;95211.53;4946802;28;20035;-61
2021/09/15 09:20:22;;;;;;;8.82;6.00;;;;;;;18.91;49.24;95218.97;4968604;28;20066;-59
2021/09/15 09:23:16;;;;;;;6.57;4.72;;;;;;;19.36;49.19;95207.59;4966885;28;20109;-59
2021/09/15 09:25:44;;;;;;;6.10;3.70;;;;;;;19.15;49.04;95209.94;4957309;28;20042;-75
2021/09/15 09:28:27;;;;;;;7.18;3.63;;;;;;;19.53;46.79;95204.91;4969215;28;20146;-76
2021/09/15 09:31:00;;;;;;;4.47;3.40;;;;;;;18.44;50.01;95217.22;4967691;28;20042;-75
2021/09/15 09:33:25;;;;;;;6.47;4.20;;;;;;;19.04;50.29;95215.13;4952705;28;20038;-76
2021/09/15 09:36:02;;;;;;;6.57;4.20;;;;;;;19.11;49.13;95216.88;4967842;28;20098;-75
2021/09/15 09:38:39;;;;;;;6.70;3.63;;;;;;;19.52;47.43;95209.50;4962971;28;20109;-75
2021/09/15 09:41:09;;;;;;;7.25;4.85;;;;;;;19.23;48.62;95216.81;4970640;28;20046;-75
2021/09/15 09:43:42;;;;;;;5.53;3.30;;;;;;;19.67;47.98;95217.03;4968662;28;20066;-77
2021/09/15 09:46:11;;;;;;;3.42;3.10;;;;;;;19.13;49.42;95209.34;4968756;28;20022;-75
2021/09/15 09:48:41;;;;;;;7.45;3.80;;;;;;;19.02;49.55;95206.50;4950979;28;20047;-60
2021/09/15 09:51:28;;;;;;;5.03;3.42;;;;;;;18.87;50.37;95201.63;4969724;28;20467;-75
2021/09/15 09:54:12;;;;;;;7.93;3.80;;;;;;;19.18;49.58;95204.06;4964715;28;20050;-75
2021/09/15 09:56:40;;;;;;;7.03;3.70;;;;;;;19.61;49.65;95195.59;4966824;28;20122;-75
2021/09/15 09:59:05;;;;;;;;;;;;;;;19.29;49.67;95205.91;4940521;28;20482;-76
2021/09/15 10:01:33;;;;;;;4.82;3.08;;;;;;;18.88;51.00;95195.19;4967150;28;19964;-75
2021/09/15 10:03:59;;;;;;;;;;;;;;;19.85;48.06;95196.19;4949916;28;20094;-75
2021/09/15 10:06:24;;;;;;;4.57;3.13;;;;;;;17.56;54.49;95201.81;4967222;28;20478;-75
2021/09/15 10:08:50;;;;;;;5.68;3.28;;;;;;;18.15;51.82;95204.50;4968116;28;20046;-76
2021/09/15 10:11:15;;;;;;;5.97;3.00;;;;;;;19.44;48.83;95196.41;4952212;28;20046;-61
2021/09/15 10:13:41;;;;;;;5.28;2.97;;;;;;;19.37;49.59;95195.78;4965138;28;20093;-75
2021/09/15 10:16:06;;;;;;;7.47;4.07;;;;;;;19.17;49.12;95187.03;4967316;28;20049;-75
2021/09/15 10:18:32;;;;;;;5.80;3.33;;;;;;;19.31;49.09;95190.28;4969599;28;20396;-75
2021/09/15 10:20:57;;;;;;;4.47;2.63;;;;;;;19.45;48.99;95192.66;4965606;28;20023;-76
2021/09/15 10:23:52;;;;;;;14.48;6.65;;;;;;;18.66;51.57;95197.75;4952389;28;20108;-75
2021/09/15 10:26:33;;;;;;;8.93;3.90;;;;;;;19.14;50.54;95192.91;4963859;28;20362;-75
2021/09/15 10:29:39;;;;;;;3.70;2.70;;;;;;;19.99;48.31;95182.41;4966541;28;20035;-75
2021/09/15 10:32:09;;;;;;;6.30;2.97;;;;;;;19.78;49.23;95185.59;4962585;28;20046;-75
2021/09/15 10:34:40;;;;;;;163.75;23.58;;;;;;;19.23;47.16;95177.16;4950656;28;20539;-75
2021/09/15 10:37:12;;;;;;;6.00;3.10;;;;;;;20.02;48.53;95180.00;4958310;28;20047;-75
2021/09/15 10:39:53;;;;;;;22.70;6.65;;;;;;;19.34;50.05;95180.84;4956042;28;20043;-75
2021/09/15 10:42:34;;;;;;;5.80;3.17;;;;;;;19.33;50.34;95181.94;4967981;28;20038;-75
2021/09/15 10:45:08;;;;;;;6.80;3.75;;;;;;;19.37;50.54;95182.28;4969094;28;20535;-76
2021/09/15 10:47:37;;;;;;;6.13;3.45;;;;;;;18.41;53.60;95174.56;4969896;28;20046;-75
2021/09/15 10:50:03;;;;;;;5.60;3.30;;;;;;;20.05;48.63;95174.09;4937538;28;20038;-76
2021/09/15 10:52:29;;;;;;;7.32;3.53;;;;;;;20.29;48.35;95173.06;4937918;28;20460;-75
2021/09/15 10:54:56;;;;;;;10.13;3.95;;;;;;;19.48;50.27;95178.69;4952392;28;20036;-75
2021/09/15 10:57:21;;;;;;;7.40;3.03;;;;;;;19.89;48.92;95172.22;4964374;28;20465;-75
2021/09/15 10:59:51;;;;;;;5.82;3.45;;;;;;;20.20;47.75;95180.78;4972477;28;20093;-76
2021/09/15 11:02:41;;;;;;;8.45;4.30;;;;;;;20.01;48.54;95172.97;4935838;28;20524;-75
2021/09/15 11:05:24;;;;;;;5.18;3.38;;;;;;;19.56;49.67;95166.63;4972409;28;20057;-66
2021/09/15 11:07:50;;;;;;;11.15;3.80;;;;;;;19.03;50.87;95164.97;4972032;28;20041;-75
2021/09/15 11:10:33;;;;;;;10.83;4.30;;;;;;;18.69;52.62;95165.72;4971025;28;20030;-76
2021/09/15 11:13:02;;;;;;;16.80;5.55;;;;;;;18.20;53.90;95167.94;4969423;28;20332;-76
2021/09/15 11:15:29;;;;;;;7.47;3.17;;;;;;;19.00;51.60;95165.44;4962167;28;20047;-75
2021/09/15 11:17:54;;;;;;;5.45;3.30;;;;;;;19.00;51.67;95170.03;4953876;28;20065;-76
2021/09/15 11:20:24;;;;;;;14.10;3.40;;;;;;;18.31;53.42;95169.81;4966734;28;20522;-76
2021/09/15 11:22:50;;;;;;;6.07;3.65;;;;;;;18.72;52.52;95167.09;4980973;28;20037;-76
2021/09/15 11:25:23;;;;;;;6.88;3.63;;;;;;;18.72;51.59;95164.41;4998644;28;20018;-76
2021/09/15 11:28:11;;;;;;;10.75;4.28;;;;;;;19.24;50.96;95167.19;4997136;28;20480;-76
2021/09/15 11:30:41;;;;;;;7.78;3.92;;;;;;;18.89;51.61;95169.84;4996307;28;20058;-76
2021/09/15 11:33:07;;;;;;;5.55;3.10;;;;;;;19.32;51.09;95164.94;4976880;28;20071;-76
2021/09/15 11:35:37;;;;;;;5.65;3.28;;;;;;;19.12;51.48;95168.09;4994919;28;20315;-76
2021/09/15 11:38:04;;;;;;;3.80;3.20;;;;;;;18.63;52.31;95168.56;4980459;28;20039;-76